UHHH/KHV METAR and TAF weather

Enter ICAO airport designator
Station Type Date Time Source
UHHH METAR 2021/08/04 18:30 UTC NOAA

UHHH 041830Z 03003MPS 9000 BKN002 20/20 Q1003 R05L/090060 NOSIG RMK QBB070 OBST OBSC QFE746/0994


Station Type Date Time Source
UHHH Decoded METAR 2021/08/04 18:30 UTC NOAA

Habarovsk, Russia (UHHH) 48-31N 135-10E 76M
Aug 04, 2021 - 02:30 PM EDT / 2021.08.04 1830 UTC
Wind: from the NNE (030 degrees) at 7 MPH (6 KT):0
Visibility: 5 mile(s):0
Sky conditions: mostly cloudy
Temperature: 68 F (20 C)
Dew Point: 68 F (20 C)
Relative Humidity: 100%
Pressure (altimeter): 29.62 in. Hg (1003 hPa)
ob: UHHH 041830Z 03003MPS 9000 BKN002 20/20 Q1003 R05L/090060 NOSIG RMK QBB070 OBST OBSC QFE746/0994
cycle: 18

Station Type Date Time Source
UHHH TAF 2021/08/04 18:54 UTC NOAA

TAF
AMD UHHH 041846Z 0418/0524 03003MPS 3100 -SHRA BR BKN003 BKN020CB
TEMPO 0418/0423 0300 FG BKN002 BKN015CB
FM050200 06003MPS 9999 SCT020CB
TEMPO 0502/0512 05007MPS 3100 -TSRA SCT011 BKN020CB

Example: see airport list